sensor_id;sensor_type;location;lat;lon;timestamp;P1;durP1;ratioP1;P2;durP2;ratioP2
79493;SDS011;68951;53.130;18.104;2023-05-10T00:01:00;5.80;;;2.10;;
79493;SDS011;68951;53.130;18.104;2023-05-10T00:03:27;5.80;;;2.20;;
79493;SDS011;68951;53.130;18.104;2023-05-10T00:05:54;6.80;;;2.30;;
79493;SDS011;68951;53.130;18.104;2023-05-10T00:08:21;9.20;;;2.40;;
79493;SDS011;68951;53.130;18.104;2023-05-10T00:10:48;5.30;;;2.00;;
79493;SDS011;68951;53.130;18.104;2023-05-10T00:13:15;5.60;;;1.80;;
79493;SDS011;68951;53.130;18.104;2023-05-10T00:15:42;6.50;;;2.20;;
79493;SDS011;68951;53.130;18.104;2023-05-10T00:18:09;7.90;;;2.10;;
79493;SDS011;68951;53.130;18.104;2023-05-10T00:20:36;7.00;;;2.00;;
79493;SDS011;68951;53.130;18.104;2023-05-10T00:23:03;6.40;;;1.90;;
79493;SDS011;68951;53.130;18.104;2023-05-10T00:25:30;7.10;;;1.60;;
79493;SDS011;68951;53.130;18.104;2023-05-10T00:27:56;6.70;;;2.30;;
79493;SDS011;68951;53.130;18.104;2023-05-10T00:30:23;6.10;;;1.90;;
79493;SDS011;68951;53.130;18.104;2023-05-10T00:32:51;6.80;;;2.10;;
79493;SDS011;68951;53.130;18.104;2023-05-10T00:35:18;6.00;;;2.00;;
79493;SDS011;68951;53.130;18.104;2023-05-10T00:37:45;5.50;;;1.90;;
79493;SDS011;68951;53.130;18.104;2023-05-10T00:40:12;7.00;;;2.00;;
79493;SDS011;68951;53.130;18.104;2023-05-10T00:42:39;6.00;;;2.10;;
79493;SDS011;68951;53.130;18.104;2023-05-10T00:45:07;5.80;;;2.20;;
79493;SDS011;68951;53.130;18.104;2023-05-10T00:47:34;5.30;;;2.20;;
79493;SDS011;68951;53.130;18.104;2023-05-10T00:50:02;6.30;;;2.10;;
79493;SDS011;68951;53.130;18.104;2023-05-10T00:52:29;6.60;;;2.20;;
79493;SDS011;68951;53.130;18.104;2023-05-10T00:54:57;6.40;;;2.00;;
79493;SDS011;68951;53.130;18.104;2023-05-10T00:57:24;6.70;;;2.10;;
79493;SDS011;68951;53.130;18.104;2023-05-10T00:59:51;4.80;;;1.80;;
79493;SDS011;68951;53.130;18.104;2023-05-10T01:02:18;4.40;;;1.90;;
79493;SDS011;68951;53.130;18.104;2023-05-10T01:04:45;5.40;;;2.00;;
79493;SDS011;68951;53.130;18.104;2023-05-10T01:07:12;5.70;;;2.20;;
79493;SDS011;68951;53.130;18.104;2023-05-10T01:09:39;6.10;;;2.40;;
79493;SDS011;68951;53.130;18.104;2023-05-10T01:12:06;6.00;;;2.30;;
79493;SDS011;68951;53.130;18.104;2023-05-10T01:14:34;5.20;;;1.80;;
79493;SDS011;68951;53.130;18.104;2023-05-10T01:17:03;7.30;;;2.70;;
79493;SDS011;68951;53.130;18.104;2023-05-10T01:19:34;5.80;;;2.20;;
79493;SDS011;68951;53.130;18.104;2023-05-10T01:25:15;6.40;;;1.90;;
79493;SDS011;68951;53.130;18.104;2023-05-10T01:34:16;6.30;;;2.10;;
79493;SDS011;68951;53.130;18.104;2023-05-10T01:36:58;6.90;;;1.90;;
79493;SDS011;68951;53.130;18.104;2023-05-10T01:40:05;5.30;;;1.80;;
79493;SDS011;68951;53.130;18.104;2023-05-10T01:42:47;5.70;;;1.90;;
79493;SDS011;68951;53.130;18.104;2023-05-10T01:45:33;6.20;;;2.10;;
79493;SDS011;68951;53.130;18.104;2023-05-10T01:48:10;6.60;;;2.60;;
79493;SDS011;68951;53.130;18.104;2023-05-10T01:50:42;6.60;;;2.40;;
79493;SDS011;68951;53.130;18.104;2023-05-10T01:53:11;5.70;;;2.20;;
79493;SDS011;68951;53.130;18.104;2023-05-10T01:55:51;6.50;;;2.10;;
79493;SDS011;68951;53.130;18.104;2023-05-10T01:58:23;5.30;;;2.30;;
79493;SDS011;68951;53.130;18.104;2023-05-10T02:00:54;7.00;;;2.80;;
79493;SDS011;68951;53.130;18.104;2023-05-10T02:03:23;6.10;;;2.30;;
79493;SDS011;68951;53.130;18.104;2023-05-10T02:05:53;6.00;;;2.40;;
79493;SDS011;68951;53.130;18.104;2023-05-10T02:08:22;6.40;;;2.00;;
79493;SDS011;68951;53.130;18.104;2023-05-10T02:10:54;7.20;;;2.50;;
79493;SDS011;68951;53.130;18.104;2023-05-10T02:13:24;6.00;;;2.30;;
79493;SDS011;68951;53.130;18.104;2023-05-10T02:15:54;6.10;;;2.30;;
79493;SDS011;68951;53.130;18.104;2023-05-10T02:18:25;6.80;;;1.90;;
79493;SDS011;68951;53.130;18.104;2023-05-10T02:20:54;6.20;;;2.40;;
79493;SDS011;68951;53.130;18.104;2023-05-10T02:23:23;5.30;;;1.80;;
79493;SDS011;68951;53.130;18.104;2023-05-10T02:25:51;6.60;;;2.20;;
79493;SDS011;68951;53.130;18.104;2023-05-10T02:28:23;6.60;;;2.30;;
79493;SDS011;68951;53.130;18.104;2023-05-10T02:30:53;5.40;;;2.30;;
79493;SDS011;68951;53.130;18.104;2023-05-10T02:33:21;7.00;;;2.10;;
79493;SDS011;68951;53.130;18.104;2023-05-10T02:35:50;6.70;;;2.50;;
79493;SDS011;68951;53.130;18.104;2023-05-10T02:38:19;7.50;;;3.10;;
79493;SDS011;68951;53.130;18.104;2023-05-10T02:40:47;6.10;;;2.00;;
79493;SDS011;68951;53.130;18.104;2023-05-10T02:43:15;5.60;;;1.80;;
79493;SDS011;68951;53.130;18.104;2023-05-10T02:45:47;6.20;;;1.80;;
79493;SDS011;68951;53.130;18.104;2023-05-10T02:48:15;6.70;;;2.40;;
79493;SDS011;68951;53.130;18.104;2023-05-10T02:50:44;6.30;;;2.10;;
79493;SDS011;68951;53.130;18.104;2023-05-10T02:53:19;6.10;;;2.80;;
79493;SDS011;68951;53.130;18.104;2023-05-10T02:55:50;5.90;;;2.60;;
79493;SDS011;68951;53.130;18.104;2023-05-10T02:58:19;5.00;;;2.20;;
79493;SDS011;68951;53.130;18.104;2023-05-10T03:00:45;5.00;;;2.00;;
79493;SDS011;68951;53.130;18.104;2023-05-10T03:03:12;4.50;;;1.60;;
79493;SDS011;68951;53.130;18.104;2023-05-10T03:05:39;6.80;;;2.10;;
79493;SDS011;68951;53.130;18.104;2023-05-10T03:08:06;6.20;;;2.00;;
79493;SDS011;68951;53.130;18.104;2023-05-10T03:10:39;5.60;;;2.30;;
79493;SDS011;68951;53.130;18.104;2023-05-10T03:13:32;5.40;;;1.90;;
79493;SDS011;68951;53.130;18.104;2023-05-10T03:16:10;4.60;;;1.90;;
79493;SDS011;68951;53.130;18.104;2023-05-10T03:18:55;7.10;;;2.20;;
79493;SDS011;68951;53.130;18.104;2023-05-10T03:21:28;5.90;;;2.00;;
79493;SDS011;68951;53.130;18.104;2023-05-10T03:24:05;5.10;;;1.70;;
79493;SDS011;68951;53.130;18.104;2023-05-10T03:26:34;7.50;;;2.10;;
79493;SDS011;68951;53.130;18.104;2023-05-10T03:29:04;4.90;;;1.80;;
79493;SDS011;68951;53.130;18.104;2023-05-10T03:31:32;5.60;;;2.00;;
79493;SDS011;68951;53.130;18.104;2023-05-10T03:33:59;5.50;;;2.00;;
79493;SDS011;68951;53.130;18.104;2023-05-10T03:36:26;8.20;;;2.70;;
79493;SDS011;68951;53.130;18.104;2023-05-10T03:38:53;7.80;;;2.90;;
79493;SDS011;68951;53.130;18.104;2023-05-10T03:41:20;6.00;;;2.20;;
79493;SDS011;68951;53.130;18.104;2023-05-10T03:43:47;6.50;;;2.70;;
79493;SDS011;68951;53.130;18.104;2023-05-10T03:46:14;6.70;;;2.60;;
79493;SDS011;68951;53.130;18.104;2023-05-10T03:48:41;5.10;;;2.00;;
79493;SDS011;68951;53.130;18.104;2023-05-10T03:51:08;6.90;;;2.30;;
79493;SDS011;68951;53.130;18.104;2023-05-10T03:53:34;5.20;;;2.30;;
79493;SDS011;68951;53.130;18.104;2023-05-10T03:56:02;5.60;;;2.40;;
79493;SDS011;68951;53.130;18.104;2023-05-10T03:58:28;5.30;;;2.30;;
79493;SDS011;68951;53.130;18.104;2023-05-10T04:00:55;6.90;;;2.30;;
79493;SDS011;68951;53.130;18.104;2023-05-10T04:03:22;5.90;;;1.90;;
79493;SDS011;68951;53.130;18.104;2023-05-10T04:05:59;5.90;;;2.10;;
79493;SDS011;68951;53.130;18.104;2023-05-10T04:08:27;6.20;;;2.40;;
79493;SDS011;68951;53.130;18.104;2023-05-10T04:11:04;5.80;;;2.20;;
79493;SDS011;68951;53.130;18.104;2023-05-10T04:13:33;5.60;;;1.90;;
79493;SDS011;68951;53.130;18.104;2023-05-10T04:16:00;6.30;;;1.90;;
79493;SDS011;68951;53.130;18.104;2023-05-10T04:18:27;5.70;;;2.10;;
79493;SDS011;68951;53.130;18.104;2023-05-10T04:20:54;8.00;;;2.40;;
79493;SDS011;68951;53.130;18.104;2023-05-10T04:23:21;5.60;;;2.10;;
79493;SDS011;68951;53.130;18.104;2023-05-10T04:25:47;5.40;;;2.00;;
79493;SDS011;68951;53.130;18.104;2023-05-10T04:28:14;6.50;;;2.10;;
79493;SDS011;68951;53.130;18.104;2023-05-10T04:30:41;5.30;;;2.20;;
79493;SDS011;68951;53.130;18.104;2023-05-10T04:33:08;6.20;;;2.20;;
79493;SDS011;68951;53.130;18.104;2023-05-10T04:35:35;5.80;;;1.80;;
79493;SDS011;68951;53.130;18.104;2023-05-10T04:38:02;7.80;;;1.90;;
79493;SDS011;68951;53.130;18.104;2023-05-10T04:40:28;5.00;;;1.60;;
79493;SDS011;68951;53.130;18.104;2023-05-10T04:42:55;6.90;;;2.20;;
79493;SDS011;68951;53.130;18.104;2023-05-10T04:45:22;5.30;;;2.00;;
79493;SDS011;68951;53.130;18.104;2023-05-10T04:47:49;5.50;;;1.50;;
79493;SDS011;68951;53.130;18.104;2023-05-10T04:50:15;5.40;;;1.70;;
79493;SDS011;68951;53.130;18.104;2023-05-10T04:52:42;6.10;;;1.80;;
79493;SDS011;68951;53.130;18.104;2023-05-10T04:55:09;4.50;;;1.60;;
79493;SDS011;68951;53.130;18.104;2023-05-10T04:57:36;7.40;;;2.10;;
79493;SDS011;68951;53.130;18.104;2023-05-10T05:00:03;7.50;;;2.10;;
79493;SDS011;68951;53.130;18.104;2023-05-10T05:02:30;8.40;;;2.20;;
79493;SDS011;68951;53.130;18.104;2023-05-10T05:04:57;6.00;;;2.00;;
79493;SDS011;68951;53.130;18.104;2023-05-10T05:07:24;6.20;;;1.90;;
79493;SDS011;68951;53.130;18.104;2023-05-10T05:09:51;7.20;;;2.10;;
79493;SDS011;68951;53.130;18.104;2023-05-10T05:12:18;8.10;;;2.10;;
79493;SDS011;68951;53.130;18.104;2023-05-10T05:14:45;7.10;;;2.40;;
79493;SDS011;68951;53.130;18.104;2023-05-10T05:17:12;8.10;;;2.60;;
79493;SDS011;68951;53.130;18.104;2023-05-10T05:19:38;6.90;;;3.00;;
79493;SDS011;68951;53.130;18.104;2023-05-10T05:22:06;7.70;;;2.40;;
79493;SDS011;68951;53.130;18.104;2023-05-10T05:24:35;8.80;;;2.80;;
79493;SDS011;68951;53.130;18.104;2023-05-10T05:27:04;7.20;;;2.10;;
79493;SDS011;68951;53.130;18.104;2023-05-10T05:29:32;8.30;;;2.40;;
79493;SDS011;68951;53.130;18.104;2023-05-10T05:31:59;8.70;;;2.30;;
79493;SDS011;68951;53.130;18.104;2023-05-10T05:34:26;8.70;;;2.70;;
79493;SDS011;68951;53.130;18.104;2023-05-10T05:36:53;9.20;;;2.40;;
79493;SDS011;68951;53.130;18.104;2023-05-10T05:39:20;6.40;;;2.30;;
79493;SDS011;68951;53.130;18.104;2023-05-10T05:41:47;10.50;;;3.20;;
79493;SDS011;68951;53.130;18.104;2023-05-10T05:44:14;8.80;;;2.70;;
79493;SDS011;68951;53.130;18.104;2023-05-10T05:46:41;7.30;;;2.30;;
79493;SDS011;68951;53.130;18.104;2023-05-10T05:49:07;8.60;;;2.90;;
79493;SDS011;68951;53.130;18.104;2023-05-10T05:51:34;6.60;;;1.70;;
79493;SDS011;68951;53.130;18.104;2023-05-10T05:54:01;6.80;;;2.00;;
79493;SDS011;68951;53.130;18.104;2023-05-10T05:56:30;5.30;;;1.70;;
79493;SDS011;68951;53.130;18.104;2023-05-10T05:58:57;9.70;;;2.70;;
79493;SDS011;68951;53.130;18.104;2023-05-10T06:01:24;8.30;;;2.10;;
79493;SDS011;68951;53.130;18.104;2023-05-10T06:03:51;6.90;;;1.80;;
79493;SDS011;68951;53.130;18.104;2023-05-10T06:06:17;5.80;;;1.80;;
79493;SDS011;68951;53.130;18.104;2023-05-10T06:08:44;4.10;;;1.40;;
79493;SDS011;68951;53.130;18.104;2023-05-10T06:11:11;6.20;;;1.80;;
79493;SDS011;68951;53.130;18.104;2023-05-10T06:13:38;6.20;;;1.90;;
79493;SDS011;68951;53.130;18.104;2023-05-10T06:16:05;4.30;;;1.30;;
79493;SDS011;68951;53.130;18.104;2023-05-10T06:18:32;6.70;;;2.20;;
79493;SDS011;68951;53.130;18.104;2023-05-10T06:20:59;6.20;;;2.00;;
79493;SDS011;68951;53.130;18.104;2023-05-10T06:23:26;5.40;;;1.40;;
79493;SDS011;68951;53.130;18.104;2023-05-10T06:25:53;4.50;;;1.70;;
79493;SDS011;68951;53.130;18.104;2023-05-10T06:28:20;7.90;;;2.20;;
79493;SDS011;68951;53.130;18.104;2023-05-10T06:30:47;5.60;;;1.50;;
79493;SDS011;68951;53.130;18.104;2023-05-10T06:33:14;5.70;;;1.30;;
79493;SDS011;68951;53.130;18.104;2023-05-10T06:35:42;5.20;;;1.50;;
79493;SDS011;68951;53.130;18.104;2023-05-10T06:38:09;5.10;;;1.70;;
79493;SDS011;68951;53.130;18.104;2023-05-10T06:40:36;6.30;;;1.60;;
79493;SDS011;68951;53.130;18.104;2023-05-10T06:43:03;4.60;;;1.50;;
79493;SDS011;68951;53.130;18.104;2023-05-10T06:45:30;5.00;;;1.40;;
79493;SDS011;68951;53.130;18.104;2023-05-10T06:47:57;5.20;;;1.50;;
79493;SDS011;68951;53.130;18.104;2023-05-10T06:50:23;7.10;;;2.00;;
79493;SDS011;68951;53.130;18.104;2023-05-10T06:52:50;5.50;;;1.50;;
79493;SDS011;68951;53.130;18.104;2023-05-10T06:55:18;3.30;;;0.90;;
79493;SDS011;68951;53.130;18.104;2023-05-10T06:57:45;7.30;;;1.60;;
79493;SDS011;68951;53.130;18.104;2023-05-10T07:00:12;4.90;;;1.20;;
79493;SDS011;68951;53.130;18.104;2023-05-10T07:02:39;3.80;;;1.30;;
79493;SDS011;68951;53.130;18.104;2023-05-10T07:05:06;6.40;;;1.70;;
79493;SDS011;68951;53.130;18.104;2023-05-10T07:07:33;5.30;;;1.40;;
79493;SDS011;68951;53.130;18.104;2023-05-10T07:10:00;6.90;;;1.80;;
79493;SDS011;68951;53.130;18.104;2023-05-10T07:12:27;6.30;;;1.70;;
79493;SDS011;68951;53.130;18.104;2023-05-10T07:14:54;3.40;;;0.90;;
79493;SDS011;68951;53.130;18.104;2023-05-10T07:17:21;6.20;;;1.30;;
79493;SDS011;68951;53.130;18.104;2023-05-10T07:19:48;4.60;;;1.30;;
79493;SDS011;68951;53.130;18.104;2023-05-10T07:22:15;4.70;;;1.50;;
79493;SDS011;68951;53.130;18.104;2023-05-10T07:24:43;4.90;;;1.10;;
79493;SDS011;68951;53.130;18.104;2023-05-10T07:27:10;6.40;;;1.60;;
79493;SDS011;68951;53.130;18.104;2023-05-10T07:29:37;4.30;;;1.00;;
79493;SDS011;68951;53.130;18.104;2023-05-10T07:32:05;6.30;;;1.40;;
79493;SDS011;68951;53.130;18.104;2023-05-10T07:34:32;6.60;;;1.80;;
79493;SDS011;68951;53.130;18.104;2023-05-10T07:36:59;4.70;;;1.70;;
79493;SDS011;68951;53.130;18.104;2023-05-10T07:39:27;3.70;;;1.20;;
79493;SDS011;68951;53.130;18.104;2023-05-10T07:41:55;9.20;;;1.90;;
79493;SDS011;68951;53.130;18.104;2023-05-10T07:44:22;9.00;;;1.50;;
79493;SDS011;68951;53.130;18.104;2023-05-10T07:46:49;4.50;;;1.10;;
79493;SDS011;68951;53.130;18.104;2023-05-10T07:49:16;8.10;;;1.70;;
79493;SDS011;68951;53.130;18.104;2023-05-10T07:51:43;7.20;;;1.80;;
79493;SDS011;68951;53.130;18.104;2023-05-10T07:54:10;6.80;;;1.30;;
79493;SDS011;68951;53.130;18.104;2023-05-10T07:56:37;7.60;;;1.60;;
79493;SDS011;68951;53.130;18.104;2023-05-10T07:59:04;7.30;;;1.30;;
79493;SDS011;68951;53.130;18.104;2023-05-10T08:01:34;3.90;;;0.90;;
79493;SDS011;68951;53.130;18.104;2023-05-10T08:04:01;5.60;;;1.30;;
79493;SDS011;68951;53.130;18.104;2023-05-10T08:06:28;4.40;;;1.30;;
79493;SDS011;68951;53.130;18.104;2023-05-10T08:08:56;6.20;;;1.20;;
79493;SDS011;68951;53.130;18.104;2023-05-10T08:11:23;6.10;;;1.70;;
79493;SDS011;68951;53.130;18.104;2023-05-10T08:13:50;6.20;;;1.50;;
79493;SDS011;68951;53.130;18.104;2023-05-10T08:16:18;7.20;;;1.80;;
79493;SDS011;68951;53.130;18.104;2023-05-10T08:18:45;7.30;;;1.50;;
79493;SDS011;68951;53.130;18.104;2023-05-10T08:21:14;4.40;;;1.50;;
79493;SDS011;68951;53.130;18.104;2023-05-10T08:23:42;7.30;;;1.50;;
79493;SDS011;68951;53.130;18.104;2023-05-10T08:26:10;8.00;;;1.50;;
79493;SDS011;68951;53.130;18.104;2023-05-10T08:28:37;8.40;;;1.50;;
79493;SDS011;68951;53.130;18.104;2023-05-10T08:31:04;4.40;;;1.50;;
79493;SDS011;68951;53.130;18.104;2023-05-10T08:33:31;4.40;;;1.20;;
79493;SDS011;68951;53.130;18.104;2023-05-10T08:35:58;5.80;;;1.60;;
79493;SDS011;68951;53.130;18.104;2023-05-10T08:38:26;5.80;;;2.00;;
79493;SDS011;68951;53.130;18.104;2023-05-10T08:40:54;5.30;;;1.60;;
79493;SDS011;68951;53.130;18.104;2023-05-10T08:43:26;7.50;;;1.50;;
79493;SDS011;68951;53.130;18.104;2023-05-10T08:45:55;4.10;;;1.60;;
79493;SDS011;68951;53.130;18.104;2023-05-10T08:48:24;5.70;;;1.80;;
79493;SDS011;68951;53.130;18.104;2023-05-10T08:50:53;5.10;;;1.50;;
79493;SDS011;68951;53.130;18.104;2023-05-10T08:53:24;6.90;;;1.80;;
79493;SDS011;68951;53.130;18.104;2023-05-10T08:55:53;8.50;;;1.70;;
79493;SDS011;68951;53.130;18.104;2023-05-10T08:58:20;7.40;;;1.80;;
79493;SDS011;68951;53.130;18.104;2023-05-10T09:00:48;8.70;;;1.60;;
79493;SDS011;68951;53.130;18.104;2023-05-10T09:03:17;4.70;;;1.80;;
79493;SDS011;68951;53.130;18.104;2023-05-10T09:05:44;4.60;;;1.60;;
79493;SDS011;68951;53.130;18.104;2023-05-10T09:08:12;4.90;;;1.50;;
79493;SDS011;68951;53.130;18.104;2023-05-10T09:10:41;6.00;;;1.70;;
79493;SDS011;68951;53.130;18.104;2023-05-10T09:13:10;6.70;;;2.10;;
79493;SDS011;68951;53.130;18.104;2023-05-10T09:15:40;6.40;;;1.70;;
79493;SDS011;68951;53.130;18.104;2023-05-10T09:18:07;5.60;;;1.50;;
79493;SDS011;68951;53.130;18.104;2023-05-10T09:20:34;6.60;;;1.60;;
79493;SDS011;68951;53.130;18.104;2023-05-10T09:23:01;7.00;;;1.90;;
79493;SDS011;68951;53.130;18.104;2023-05-10T09:25:28;4.10;;;1.70;;
79493;SDS011;68951;53.130;18.104;2023-05-10T09:27:56;7.90;;;2.10;;
79493;SDS011;68951;53.130;18.104;2023-05-10T09:30:26;5.10;;;1.90;;
79493;SDS011;68951;53.130;18.104;2023-05-10T09:32:55;6.90;;;2.60;;
79493;SDS011;68951;53.130;18.104;2023-05-10T09:35:24;8.80;;;2.20;;
79493;SDS011;68951;53.130;18.104;2023-05-10T09:37:56;5.00;;;1.50;;
79493;SDS011;68951;53.130;18.104;2023-05-10T09:40:25;6.20;;;1.80;;
79493;SDS011;68951;53.130;18.104;2023-05-10T09:43:00;8.80;;;2.20;;
79493;SDS011;68951;53.130;18.104;2023-05-10T09:45:31;7.00;;;3.00;;
79493;SDS011;68951;53.130;18.104;2023-05-10T09:47:59;5.30;;;1.40;;
79493;SDS011;68951;53.130;18.104;2023-05-10T09:50:29;4.60;;;1.60;;
79493;SDS011;68951;53.130;18.104;2023-05-10T09:52:59;6.60;;;2.10;;
79493;SDS011;68951;53.130;18.104;2023-05-10T09:55:45;9.70;;;1.90;;
79493;SDS011;68951;53.130;18.104;2023-05-10T09:58:13;6.70;;;1.30;;
79493;SDS011;68951;53.130;18.104;2023-05-10T10:00:41;6.60;;;1.80;;
79493;SDS011;68951;53.130;18.104;2023-05-10T10:03:17;5.40;;;2.00;;
79493;SDS011;68951;53.130;18.104;2023-05-10T10:05:46;5.80;;;1.50;;
79493;SDS011;68951;53.130;18.104;2023-05-10T10:08:15;5.90;;;2.00;;
79493;SDS011;68951;53.130;18.104;2023-05-10T10:10:43;4.60;;;1.70;;
79493;SDS011;68951;53.130;18.104;2023-05-10T10:13:13;7.30;;;1.80;;
79493;SDS011;68951;53.130;18.104;2023-05-10T10:15:42;6.30;;;2.20;;
79493;SDS011;68951;53.130;18.104;2023-05-10T10:18:13;5.60;;;1.70;;
79493;SDS011;68951;53.130;18.104;2023-05-10T10:20:41;5.30;;;2.10;;
79493;SDS011;68951;53.130;18.104;2023-05-10T10:23:08;7.70;;;1.50;;
79493;SDS011;68951;53.130;18.104;2023-05-10T10:25:37;4.90;;;2.10;;
79493;SDS011;68951;53.130;18.104;2023-05-10T10:28:21;7.30;;;2.30;;
79493;SDS011;68951;53.130;18.104;2023-05-10T10:31:46;5.60;;;2.20;;
79493;SDS011;68951;53.130;18.104;2023-05-10T10:34:29;6.50;;;2.00;;
79493;SDS011;68951;53.130;18.104;2023-05-10T10:36:57;4.00;;;1.90;;
79493;SDS011;68951;53.130;18.104;2023-05-10T10:39:31;6.80;;;2.60;;
79493;SDS011;68951;53.130;18.104;2023-05-10T10:41:59;5.50;;;2.30;;
79493;SDS011;68951;53.130;18.104;2023-05-10T10:50:12;6.20;;;2.10;;
79493;SDS011;68951;53.130;18.104;2023-05-10T10:52:43;5.40;;;2.00;;
79493;SDS011;68951;53.130;18.104;2023-05-10T10:55:17;9.30;;;2.40;;
79493;SDS011;68951;53.130;18.104;2023-05-10T10:57:56;9.50;;;2.10;;
79493;SDS011;68951;53.130;18.104;2023-05-10T11:05:38;5.80;;;1.70;;
79493;SDS011;68951;53.130;18.104;2023-05-10T11:08:28;7.00;;;2.50;;
79493;SDS011;68951;53.130;18.104;2023-05-10T11:13:29;8.20;;;2.30;;
79493;SDS011;68951;53.130;18.104;2023-05-10T11:16:14;5.30;;;2.00;;
79493;SDS011;68951;53.130;18.104;2023-05-10T11:19:10;9.80;;;2.50;;
79493;SDS011;68951;53.130;18.104;2023-05-10T11:22:11;7.40;;;2.40;;
79493;SDS011;68951;53.130;18.104;2023-05-10T11:24:40;10.60;;;3.00;;
79493;SDS011;68951;53.130;18.104;2023-05-10T11:27:23;9.10;;;2.90;;
79493;SDS011;68951;53.130;18.104;2023-05-10T11:29:53;8.10;;;2.50;;
79493;SDS011;68951;53.130;18.104;2023-05-10T11:32:20;5.10;;;2.10;;
79493;SDS011;68951;53.130;18.104;2023-05-10T11:34:47;7.30;;;2.30;;
79493;SDS011;68951;53.130;18.104;2023-05-10T11:37:14;8.60;;;2.90;;
79493;SDS011;68951;53.130;18.104;2023-05-10T11:39:45;6.80;;;2.30;;
79493;SDS011;68951;53.130;18.104;2023-05-10T11:42:13;4.50;;;1.70;;
79493;SDS011;68951;53.130;18.104;2023-05-10T11:44:40;7.00;;;2.40;;
79493;SDS011;68951;53.130;18.104;2023-05-10T11:47:08;5.80;;;2.30;;
79493;SDS011;68951;53.130;18.104;2023-05-10T11:49:35;5.60;;;2.60;;
79493;SDS011;68951;53.130;18.104;2023-05-10T11:52:06;13.60;;;2.30;;
79493;SDS011;68951;53.130;18.104;2023-05-10T11:54:34;12.20;;;3.10;;
79493;SDS011;68951;53.130;18.104;2023-05-10T11:57:01;7.30;;;2.00;;
79493;SDS011;68951;53.130;18.104;2023-05-10T11:59:29;5.90;;;2.10;;
79493;SDS011;68951;53.130;18.104;2023-05-10T12:01:56;8.20;;;2.40;;
79493;SDS011;68951;53.130;18.104;2023-05-10T12:04:23;4.80;;;2.40;;
79493;SDS011;68951;53.130;18.104;2023-05-10T12:06:51;5.70;;;2.30;;
79493;SDS011;68951;53.130;18.104;2023-05-10T12:09:18;7.70;;;2.40;;
79493;SDS011;68951;53.130;18.104;2023-05-10T12:11:45;9.10;;;2.00;;
79493;SDS011;68951;53.130;18.104;2023-05-10T12:14:12;7.70;;;2.30;;
79493;SDS011;68951;53.130;18.104;2023-05-10T12:16:39;4.90;;;2.10;;
79493;SDS011;68951;53.130;18.104;2023-05-10T12:19:06;9.60;;;2.50;;
79493;SDS011;68951;53.130;18.104;2023-05-10T12:21:33;10.70;;;2.90;;
79493;SDS011;68951;53.130;18.104;2023-05-10T12:24:02;6.90;;;2.40;;
79493;SDS011;68951;53.130;18.104;2023-05-10T12:26:30;7.90;;;2.00;;
79493;SDS011;68951;53.130;18.104;2023-05-10T12:29:17;8.10;;;2.10;;
79493;SDS011;68951;53.130;18.104;2023-05-10T12:31:56;6.70;;;2.20;;
79493;SDS011;68951;53.130;18.104;2023-05-10T12:34:33;7.20;;;2.40;;
79493;SDS011;68951;53.130;18.104;2023-05-10T12:37:02;8.20;;;2.10;;
79493;SDS011;68951;53.130;18.104;2023-05-10T12:39:43;10.30;;;2.40;;
79493;SDS011;68951;53.130;18.104;2023-05-10T12:42:11;6.70;;;2.40;;
79493;SDS011;68951;53.130;18.104;2023-05-10T12:44:38;5.90;;;2.50;;
79493;SDS011;68951;53.130;18.104;2023-05-10T12:47:05;7.60;;;2.50;;
79493;SDS011;68951;53.130;18.104;2023-05-10T12:49:32;7.00;;;2.10;;
79493;SDS011;68951;53.130;18.104;2023-05-10T12:52:00;8.60;;;2.20;;
79493;SDS011;68951;53.130;18.104;2023-05-10T12:54:27;5.90;;;2.50;;
79493;SDS011;68951;53.130;18.104;2023-05-10T12:56:54;6.90;;;2.10;;
79493;SDS011;68951;53.130;18.104;2023-05-10T12:59:21;14.10;;;2.90;;
79493;SDS011;68951;53.130;18.104;2023-05-10T13:01:49;8.50;;;2.70;;
79493;SDS011;68951;53.130;18.104;2023-05-10T13:04:16;10.00;;;2.60;;
79493;SDS011;68951;53.130;18.104;2023-05-10T13:06:43;6.40;;;2.60;;
79493;SDS011;68951;53.130;18.104;2023-05-10T13:09:09;10.00;;;2.70;;
79493;SDS011;68951;53.130;18.104;2023-05-10T13:11:37;6.90;;;2.10;;
79493;SDS011;68951;53.130;18.104;2023-05-10T13:14:03;11.50;;;2.50;;
79493;SDS011;68951;53.130;18.104;2023-05-10T13:16:31;7.60;;;2.20;;
79493;SDS011;68951;53.130;18.104;2023-05-10T13:18:58;8.70;;;2.60;;
79493;SDS011;68951;53.130;18.104;2023-05-10T13:21:25;7.60;;;1.90;;
79493;SDS011;68951;53.130;18.104;2023-05-10T13:23:53;4.60;;;2.10;;
79493;SDS011;68951;53.130;18.104;2023-05-10T13:26:20;5.40;;;2.20;;
79493;SDS011;68951;53.130;18.104;2023-05-10T13:28:48;6.50;;;2.80;;
79493;SDS011;68951;53.130;18.104;2023-05-10T13:31:16;5.80;;;2.10;;
79493;SDS011;68951;53.130;18.104;2023-05-10T13:33:42;6.10;;;2.60;;
79493;SDS011;68951;53.130;18.104;2023-05-10T13:36:09;4.90;;;2.40;;
79493;SDS011;68951;53.130;18.104;2023-05-10T13:38:36;6.70;;;2.30;;
79493;SDS011;68951;53.130;18.104;2023-05-10T13:41:04;4.70;;;2.80;;
79493;SDS011;68951;53.130;18.104;2023-05-10T13:43:31;7.30;;;2.60;;
79493;SDS011;68951;53.130;18.104;2023-05-10T13:45:58;9.30;;;2.60;;
79493;SDS011;68951;53.130;18.104;2023-05-10T13:48:25;6.00;;;2.20;;
79493;SDS011;68951;53.130;18.104;2023-05-10T13:50:52;4.10;;;2.20;;
79493;SDS011;68951;53.130;18.104;2023-05-10T13:53:19;4.20;;;2.20;;
79493;SDS011;68951;53.130;18.104;2023-05-10T13:55:46;5.20;;;2.10;;
79493;SDS011;68951;53.130;18.104;2023-05-10T13:58:13;6.10;;;2.40;;
79493;SDS011;68951;53.130;18.104;2023-05-10T14:00:40;6.40;;;2.30;;
79493;SDS011;68951;53.130;18.104;2023-05-10T14:03:07;8.90;;;2.70;;
79493;SDS011;68951;53.130;18.104;2023-05-10T14:05:37;5.70;;;2.40;;
79493;SDS011;68951;53.130;18.104;2023-05-10T14:08:04;8.40;;;3.00;;
79493;SDS011;68951;53.130;18.104;2023-05-10T14:10:31;7.10;;;2.50;;
79493;SDS011;68951;53.130;18.104;2023-05-10T14:12:58;8.60;;;2.30;;
79493;SDS011;68951;53.130;18.104;2023-05-10T14:15:25;6.90;;;2.70;;
79493;SDS011;68951;53.130;18.104;2023-05-10T14:17:52;10.50;;;2.80;;
79493;SDS011;68951;53.130;18.104;2023-05-10T14:20:19;15.10;;;2.90;;
79493;SDS011;68951;53.130;18.104;2023-05-10T14:22:46;8.60;;;3.00;;
79493;SDS011;68951;53.130;18.104;2023-05-10T14:25:13;7.60;;;2.70;;
79493;SDS011;68951;53.130;18.104;2023-05-10T14:27:40;6.80;;;2.20;;
79493;SDS011;68951;53.130;18.104;2023-05-10T14:30:08;5.10;;;2.90;;
79493;SDS011;68951;53.130;18.104;2023-05-10T14:32:35;6.30;;;2.30;;
79493;SDS011;68951;53.130;18.104;2023-05-10T14:35:03;6.40;;;2.10;;
79493;SDS011;68951;53.130;18.104;2023-05-10T14:37:30;7.50;;;2.20;;
79493;SDS011;68951;53.130;18.104;2023-05-10T14:39:57;5.80;;;2.60;;
79493;SDS011;68951;53.130;18.104;2023-05-10T14:42:25;6.40;;;3.00;;
79493;SDS011;68951;53.130;18.104;2023-05-10T14:44:52;6.20;;;3.00;;
79493;SDS011;68951;53.130;18.104;2023-05-10T14:47:19;9.60;;;2.50;;
79493;SDS011;68951;53.130;18.104;2023-05-10T14:49:45;9.30;;;2.20;;
79493;SDS011;68951;53.130;18.104;2023-05-10T14:52:13;5.80;;;2.20;;
79493;SDS011;68951;53.130;18.104;2023-05-10T14:54:40;8.00;;;2.60;;
79493;SDS011;68951;53.130;18.104;2023-05-10T14:57:07;5.50;;;2.10;;
79493;SDS011;68951;53.130;18.104;2023-05-10T14:59:34;7.50;;;2.50;;
79493;SDS011;68951;53.130;18.104;2023-05-10T15:02:02;6.90;;;2.20;;
79493;SDS011;68951;53.130;18.104;2023-05-10T15:04:30;6.30;;;1.90;;
79493;SDS011;68951;53.130;18.104;2023-05-10T15:06:57;7.30;;;2.70;;